Etusivu
METAR-TAF:

METAR-TAF

Lentoasemat :

Yao, Japani

Leveyspiiri: 34-36N, Pituuspiiri: 135-36E, korkeus merenpinnasta: 10 m

Tämänhetkinen sää

Tämä raportti tehtiin 55 minuuttia sitten, kello 02.00 UTC
Tuuli 3 kn luoteesta, vaihdellen lounaan ja koillisen välillä
Lämpötila 30°C
Kosteus 40%
Ilmanpaine 1018 hPa
Näkyvyys 10 km tai enemmän
ei pilviä alle 1500 m:ssä eikä cumulonimbus-pilviä

METAR: RJOY 260200Z 31003KT 230V040 CAVOK 30/15 Q1018

Aika: 11:55 (02:55 UTC)


TAF: puuttuu

Säähavainnot ja -ennusteet yli 4000 lentoasemalta (METAR- ja TAF-raportit).

Käytössä olevat sääasemat on merkitty karttaan keltaisilla ja punaisilla pisteillä.

Aseta hiiri pisteen päälle nähdäksesi sääaseman nimen.

Klikkaa sitten nähdäksesi säähavainnot ja -ennusteet.

Kartan vaihtaminen: klikkaa mustalla rastilla varustettuja vihreitä pisteitä, niin voit zoomata sisään; viivalla varustettua vihreää pistettä, niin voit zoomata ulos tai vihreitä nuolia, niin pääset viereisille kartoille.


METAR-TAF: